sensor_id;sensor_type;location;lat;lon;timestamp;temperature;humidity
70986;DHT22;58645;43.068;25.610;2023-05-07T00:00:03;11.60;99.90
70986;DHT22;58645;43.068;25.610;2023-05-07T00:02:33;11.60;99.90
70986;DHT22;58645;43.068;25.610;2023-05-07T00:04:59;11.50;99.90
70986;DHT22;58645;43.068;25.610;2023-05-07T00:07:24;11.40;99.90
70986;DHT22;58645;43.068;25.610;2023-05-07T00:09:50;11.40;99.90
70986;DHT22;58645;43.068;25.610;2023-05-07T00:12:16;11.30;99.90
70986;DHT22;58645;43.068;25.610;2023-05-07T00:14:41;11.30;99.90
70986;DHT22;58645;43.068;25.610;2023-05-07T00:17:07;11.20;99.90
70986;DHT22;58645;43.068;25.610;2023-05-07T00:19:33;11.10;99.90
70986;DHT22;58645;43.068;25.610;2023-05-07T00:21:58;11.10;99.90
70986;DHT22;58645;43.068;25.610;2023-05-07T00:24:24;11.00;99.90
70986;DHT22;58645;43.068;25.610;2023-05-07T00:26:50;10.90;99.90
70986;DHT22;58645;43.068;25.610;2023-05-07T00:29:16;10.80;99.90
70986;DHT22;58645;43.068;25.610;2023-05-07T00:31:42;10.80;99.90
70986;DHT22;58645;43.068;25.610;2023-05-07T00:34:08;10.70;99.90
70986;DHT22;58645;43.068;25.610;2023-05-07T00:36:33;10.70;99.90
70986;DHT22;58645;43.068;25.610;2023-05-07T00:39:00;10.70;99.90
70986;DHT22;58645;43.068;25.610;2023-05-07T00:41:27;10.60;99.90
70986;DHT22;58645;43.068;25.610;2023-05-07T00:43:53;10.60;99.90
70986;DHT22;58645;43.068;25.610;2023-05-07T00:46:20;10.60;99.90
70986;DHT22;58645;43.068;25.610;2023-05-07T00:48:47;10.60;99.90
70986;DHT22;58645;43.068;25.610;2023-05-07T00:51:13;10.60;99.90
70986;DHT22;58645;43.068;25.610;2023-05-07T00:53:39;10.50;99.90
70986;DHT22;58645;43.068;25.610;2023-05-07T00:56:05;10.50;99.90
70986;DHT22;58645;43.068;25.610;2023-05-07T00:58:32;10.40;99.90
70986;DHT22;58645;43.068;25.610;2023-05-07T01:00:57;10.40;99.90
70986;DHT22;58645;43.068;25.610;2023-05-07T01:03:23;10.30;99.90
70986;DHT22;58645;43.068;25.610;2023-05-07T01:05:50;10.20;99.90
70986;DHT22;58645;43.068;25.610;2023-05-07T01:08:17;10.20;99.90
70986;DHT22;58645;43.068;25.610;2023-05-07T01:10:43;10.20;99.90
70986;DHT22;58645;43.068;25.610;2023-05-07T01:13:10;10.20;99.90
70986;DHT22;58645;43.068;25.610;2023-05-07T01:15:37;10.20;99.90
70986;DHT22;58645;43.068;25.610;2023-05-07T01:18:03;10.30;99.90
70986;DHT22;58645;43.068;25.610;2023-05-07T01:20:30;10.30;99.90
70986;DHT22;58645;43.068;25.610;2023-05-07T01:22:57;10.30;99.90
70986;DHT22;58645;43.068;25.610;2023-05-07T01:25:23;10.30;99.90
70986;DHT22;58645;43.068;25.610;2023-05-07T01:27:49;10.30;99.90
70986;DHT22;58645;43.068;25.610;2023-05-07T01:30:16;10.30;99.90
70986;DHT22;58645;43.068;25.610;2023-05-07T01:32:56;10.30;99.90
70986;DHT22;58645;43.068;25.610;2023-05-07T01:35:28;10.20;99.90
70986;DHT22;58645;43.068;25.610;2023-05-07T01:37:55;10.20;99.90
70986;DHT22;58645;43.068;25.610;2023-05-07T01:40:21;10.20;99.90
70986;DHT22;58645;43.068;25.610;2023-05-07T01:42:47;10.20;99.90
70986;DHT22;58645;43.068;25.610;2023-05-07T01:45:13;10.20;99.90
70986;DHT22;58645;43.068;25.610;2023-05-07T01:47:39;10.20;99.90
70986;DHT22;58645;43.068;25.610;2023-05-07T01:50:06;10.20;99.90
70986;DHT22;58645;43.068;25.610;2023-05-07T01:52:35;10.20;99.90
70986;DHT22;58645;43.068;25.610;2023-05-07T01:55:01;10.10;99.90
70986;DHT22;58645;43.068;25.610;2023-05-07T01:57:27;10.10;99.90
70986;DHT22;58645;43.068;25.610;2023-05-07T01:59:52;10.10;99.90
70986;DHT22;58645;43.068;25.610;2023-05-07T02:02:18;10.10;99.90
70986;DHT22;58645;43.068;25.610;2023-05-07T02:04:44;10.00;99.90
70986;DHT22;58645;43.068;25.610;2023-05-07T02:07:10;10.00;99.90
70986;DHT22;58645;43.068;25.610;2023-05-07T02:09:35;10.00;99.90
70986;DHT22;58645;43.068;25.610;2023-05-07T02:12:01;10.00;99.90
70986;DHT22;58645;43.068;25.610;2023-05-07T02:14:27;10.00;99.90
70986;DHT22;58645;43.068;25.610;2023-05-07T02:16:53;9.90;99.90
70986;DHT22;58645;43.068;25.610;2023-05-07T02:19:18;9.90;99.90
70986;DHT22;58645;43.068;25.610;2023-05-07T02:21:46;9.90;99.90
70986;DHT22;58645;43.068;25.610;2023-05-07T02:24:12;9.90;99.90
70986;DHT22;58645;43.068;25.610;2023-05-07T02:26:39;9.90;99.90
70986;DHT22;58645;43.068;25.610;2023-05-07T02:29:05;9.90;99.90
70986;DHT22;58645;43.068;25.610;2023-05-07T02:31:31;9.90;99.90
70986;DHT22;58645;43.068;25.610;2023-05-07T02:33:56;9.90;99.90
70986;DHT22;58645;43.068;25.610;2023-05-07T02:36:22;9.90;99.90
70986;DHT22;58645;43.068;25.610;2023-05-07T02:38:48;9.90;99.90
70986;DHT22;58645;43.068;25.610;2023-05-07T02:41:14;9.80;99.90
70986;DHT22;58645;43.068;25.610;2023-05-07T02:43:39;9.70;99.90
70986;DHT22;58645;43.068;25.610;2023-05-07T02:46:07;9.80;99.90
70986;DHT22;58645;43.068;25.610;2023-05-07T02:48:34;9.80;99.90
70986;DHT22;58645;43.068;25.610;2023-05-07T02:51:00;9.80;99.90
70986;DHT22;58645;43.068;25.610;2023-05-07T02:53:26;9.70;99.90
70986;DHT22;58645;43.068;25.610;2023-05-07T02:55:56;9.80;99.90
70986;DHT22;58645;43.068;25.610;2023-05-07T02:58:22;9.70;99.90
70986;DHT22;58645;43.068;25.610;2023-05-07T03:00:49;9.70;99.90
70986;DHT22;58645;43.068;25.610;2023-05-07T03:03:15;9.70;99.90
70986;DHT22;58645;43.068;25.610;2023-05-07T03:05:41;9.70;99.90
70986;DHT22;58645;43.068;25.610;2023-05-07T03:08:07;9.60;99.90
70986;DHT22;58645;43.068;25.610;2023-05-07T03:10:33;9.60;99.90
70986;DHT22;58645;43.068;25.610;2023-05-07T03:12:59;9.60;99.90
70986;DHT22;58645;43.068;25.610;2023-05-07T03:15:24;9.60;99.90
70986;DHT22;58645;43.068;25.610;2023-05-07T03:17:52;9.70;99.90
70986;DHT22;58645;43.068;25.610;2023-05-07T03:20:17;9.60;99.90
70986;DHT22;58645;43.068;25.610;2023-05-07T03:22:43;9.60;99.90
70986;DHT22;58645;43.068;25.610;2023-05-07T03:25:09;9.60;99.90
70986;DHT22;58645;43.068;25.610;2023-05-07T03:27:35;9.50;99.90
70986;DHT22;58645;43.068;25.610;2023-05-07T03:30:01;9.50;99.90
70986;DHT22;58645;43.068;25.610;2023-05-07T03:32:27;9.60;99.90
70986;DHT22;58645;43.068;25.610;2023-05-07T03:34:52;9.50;99.90
70986;DHT22;58645;43.068;25.610;2023-05-07T03:37:18;9.50;99.90
70986;DHT22;58645;43.068;25.610;2023-05-07T03:39:44;9.40;99.90
70986;DHT22;58645;43.068;25.610;2023-05-07T03:42:10;9.40;99.90
70986;DHT22;58645;43.068;25.610;2023-05-07T03:44:36;9.40;99.90
70986;DHT22;58645;43.068;25.610;2023-05-07T03:47:02;9.40;99.90
70986;DHT22;58645;43.068;25.610;2023-05-07T03:49:28;9.30;99.90
70986;DHT22;58645;43.068;25.610;2023-05-07T03:51:53;9.30;99.90
70986;DHT22;58645;43.068;25.610;2023-05-07T03:54:19;9.40;99.90
70986;DHT22;58645;43.068;25.610;2023-05-07T03:56:45;9.40;99.90
70986;DHT22;58645;43.068;25.610;2023-05-07T03:59:12;9.40;99.90
70986;DHT22;58645;43.068;25.610;2023-05-07T04:01:38;9.60;99.90
70986;DHT22;58645;43.068;25.610;2023-05-07T04:04:04;9.70;99.90
70986;DHT22;58645;43.068;25.610;2023-05-07T04:06:30;9.70;99.90
70986;DHT22;58645;43.068;25.610;2023-05-07T04:08:56;9.80;99.90
70986;DHT22;58645;43.068;25.610;2023-05-07T04:11:22;9.90;99.90
70986;DHT22;58645;43.068;25.610;2023-05-07T04:13:48;9.90;99.90
70986;DHT22;58645;43.068;25.610;2023-05-07T04:16:13;10.00;99.90
70986;DHT22;58645;43.068;25.610;2023-05-07T04:18:39;10.20;99.90
70986;DHT22;58645;43.068;25.610;2023-05-07T04:21:05;10.30;99.90
70986;DHT22;58645;43.068;25.610;2023-05-07T04:23:31;10.50;99.90
70986;DHT22;58645;43.068;25.610;2023-05-07T04:25:57;10.60;99.90
70986;DHT22;58645;43.068;25.610;2023-05-07T04:28:23;10.70;99.90
70986;DHT22;58645;43.068;25.610;2023-05-07T04:30:49;10.70;99.90
70986;DHT22;58645;43.068;25.610;2023-05-07T04:33:15;10.90;99.90
70986;DHT22;58645;43.068;25.610;2023-05-07T04:35:43;11.20;99.90
70986;DHT22;58645;43.068;25.610;2023-05-07T04:38:09;11.50;99.90
70986;DHT22;58645;43.068;25.610;2023-05-07T04:40:38;11.70;99.90
70986;DHT22;58645;43.068;25.610;2023-05-07T04:43:04;11.70;99.90
70986;DHT22;58645;43.068;25.610;2023-05-07T04:45:30;11.80;99.90
70986;DHT22;58645;43.068;25.610;2023-05-07T04:47:56;12.00;99.90
70986;DHT22;58645;43.068;25.610;2023-05-07T04:50:21;12.10;99.90
70986;DHT22;58645;43.068;25.610;2023-05-07T04:52:49;12.20;99.90
70986;DHT22;58645;43.068;25.610;2023-05-07T04:55:15;12.00;99.90
70986;DHT22;58645;43.068;25.610;2023-05-07T04:57:41;12.10;99.90
70986;DHT22;58645;43.068;25.610;2023-05-07T05:00:07;12.20;99.90
70986;DHT22;58645;43.068;25.610;2023-05-07T05:02:34;12.40;99.90
70986;DHT22;58645;43.068;25.610;2023-05-07T05:05:01;12.60;99.90
70986;DHT22;58645;43.068;25.610;2023-05-07T05:07:29;12.80;99.90
70986;DHT22;58645;43.068;25.610;2023-05-07T05:09:55;12.80;99.90
70986;DHT22;58645;43.068;25.610;2023-05-07T05:12:22;13.00;99.90
70986;DHT22;58645;43.068;25.610;2023-05-07T05:14:48;12.90;99.90
70986;DHT22;58645;43.068;25.610;2023-05-07T05:17:14;13.20;99.90
70986;DHT22;58645;43.068;25.610;2023-05-07T05:19:40;13.60;99.90
70986;DHT22;58645;43.068;25.610;2023-05-07T05:22:06;13.80;99.90
70986;DHT22;58645;43.068;25.610;2023-05-07T05:24:32;13.90;99.90
70986;DHT22;58645;43.068;25.610;2023-05-07T05:26:57;13.90;99.90
70986;DHT22;58645;43.068;25.610;2023-05-07T05:29:25;13.80;99.90
70986;DHT22;58645;43.068;25.610;2023-05-07T05:31:51;14.00;99.90
70986;DHT22;58645;43.068;25.610;2023-05-07T05:34:16;14.30;99.90
70986;DHT22;58645;43.068;25.610;2023-05-07T05:36:45;14.40;99.90
70986;DHT22;58645;43.068;25.610;2023-05-07T05:39:11;14.90;99.90
70986;DHT22;58645;43.068;25.610;2023-05-07T05:41:37;15.10;99.90
70986;DHT22;58645;43.068;25.610;2023-05-07T05:44:02;15.40;99.90
70986;DHT22;58645;43.068;25.610;2023-05-07T05:46:28;15.80;99.90
70986;DHT22;58645;43.068;25.610;2023-05-07T05:48:54;16.20;99.90
70986;DHT22;58645;43.068;25.610;2023-05-07T05:51:21;16.80;99.90
70986;DHT22;58645;43.068;25.610;2023-05-07T05:53:47;17.30;99.90
70986;DHT22;58645;43.068;25.610;2023-05-07T05:56:12;17.90;99.90
70986;DHT22;58645;43.068;25.610;2023-05-07T05:58:38;18.00;99.90
70986;DHT22;58645;43.068;25.610;2023-05-07T06:01:04;18.60;99.90
70986;DHT22;58645;43.068;25.610;2023-05-07T06:03:30;18.90;99.90
70986;DHT22;58645;43.068;25.610;2023-05-07T06:05:57;19.20;99.90
70986;DHT22;58645;43.068;25.610;2023-05-07T06:08:23;19.70;97.90
70986;DHT22;58645;43.068;25.610;2023-05-07T06:10:49;20.10;94.70
70986;DHT22;58645;43.068;25.610;2023-05-07T06:13:15;20.30;88.30
70986;DHT22;58645;43.068;25.610;2023-05-07T06:15:41;20.50;86.80
70986;DHT22;58645;43.068;25.610;2023-05-07T06:18:06;21.00;83.60
70986;DHT22;58645;43.068;25.610;2023-05-07T06:20:32;20.90;79.50
70986;DHT22;58645;43.068;25.610;2023-05-07T06:22:58;21.20;78.30
70986;DHT22;58645;43.068;25.610;2023-05-07T06:25:23;21.70;75.70
70986;DHT22;58645;43.068;25.610;2023-05-07T06:27:49;21.80;73.60
70986;DHT22;58645;43.068;25.610;2023-05-07T06:30:15;21.70;71.30
70986;DHT22;58645;43.068;25.610;2023-05-07T06:32:40;21.90;70.00
70986;DHT22;58645;43.068;25.610;2023-05-07T06:35:06;22.20;67.30
70986;DHT22;58645;43.068;25.610;2023-05-07T06:37:32;22.30;66.80
70986;DHT22;58645;43.068;25.610;2023-05-07T06:39:58;22.80;64.80
70986;DHT22;58645;43.068;25.610;2023-05-07T06:42:23;23.10;64.50
70986;DHT22;58645;43.068;25.610;2023-05-07T06:44:49;23.40;63.30
70986;DHT22;58645;43.068;25.610;2023-05-07T06:47:15;23.50;61.30
70986;DHT22;58645;43.068;25.610;2023-05-07T06:49:40;23.50;59.70
70986;DHT22;58645;43.068;25.610;2023-05-07T06:52:06;23.20;59.70
70986;DHT22;58645;43.068;25.610;2023-05-07T06:54:32;23.40;60.40
70986;DHT22;58645;43.068;25.610;2023-05-07T06:56:57;24.00;57.70
70986;DHT22;58645;43.068;25.610;2023-05-07T06:59:23;24.20;55.50
70986;DHT22;58645;43.068;25.610;2023-05-07T07:01:49;24.40;53.60
70986;DHT22;58645;43.068;25.610;2023-05-07T07:04:15;24.80;52.90
70986;DHT22;58645;43.068;25.610;2023-05-07T07:06:41;25.10;51.70
70986;DHT22;58645;43.068;25.610;2023-05-07T07:09:06;25.20;49.80
70986;DHT22;58645;43.068;25.610;2023-05-07T07:11:32;25.40;47.90
70986;DHT22;58645;43.068;25.610;2023-05-07T07:13:58;25.50;47.90
70986;DHT22;58645;43.068;25.610;2023-05-07T07:16:24;25.80;47.30
70986;DHT22;58645;43.068;25.610;2023-05-07T07:18:50;25.70;46.30
70986;DHT22;58645;43.068;25.610;2023-05-07T07:21:16;26.10;48.10
70986;DHT22;58645;43.068;25.610;2023-05-07T07:23:42;26.50;46.20
70986;DHT22;58645;43.068;25.610;2023-05-07T07:26:08;26.40;44.80
70986;DHT22;58645;43.068;25.610;2023-05-07T07:28:34;26.40;43.10
70986;DHT22;58645;43.068;25.610;2023-05-07T07:30:59;26.60;42.30
70986;DHT22;58645;43.068;25.610;2023-05-07T07:33:25;26.80;40.80
70986;DHT22;58645;43.068;25.610;2023-05-07T07:35:51;27.00;39.80
70986;DHT22;58645;43.068;25.610;2023-05-07T07:38:16;27.00;39.10
70986;DHT22;58645;43.068;25.610;2023-05-07T07:40:42;27.00;39.30
70986;DHT22;58645;43.068;25.610;2023-05-07T07:43:09;27.30;38.60
70986;DHT22;58645;43.068;25.610;2023-05-07T07:45:35;27.30;39.20
70986;DHT22;58645;43.068;25.610;2023-05-07T07:48:01;27.10;38.80
70986;DHT22;58645;43.068;25.610;2023-05-07T07:50:26;27.20;38.70
70986;DHT22;58645;43.068;25.610;2023-05-07T07:52:52;27.30;38.00
70986;DHT22;58645;43.068;25.610;2023-05-07T07:55:20;27.30;39.80
70986;DHT22;58645;43.068;25.610;2023-05-07T07:57:49;27.70;37.80
70986;DHT22;58645;43.068;25.610;2023-05-07T08:00:15;27.70;36.10
70986;DHT22;58645;43.068;25.610;2023-05-07T08:02:41;27.80;37.00
70986;DHT22;58645;43.068;25.610;2023-05-07T08:05:07;27.90;37.80
70986;DHT22;58645;43.068;25.610;2023-05-07T08:07:33;28.00;38.40
70986;DHT22;58645;43.068;25.610;2023-05-07T08:09:58;28.60;35.50
70986;DHT22;58645;43.068;25.610;2023-05-07T08:12:24;28.60;35.50
70986;DHT22;58645;43.068;25.610;2023-05-07T08:14:50;28.20;36.30
70986;DHT22;58645;43.068;25.610;2023-05-07T08:17:16;28.20;35.50
70986;DHT22;58645;43.068;25.610;2023-05-07T08:19:42;28.10;36.50
70986;DHT22;58645;43.068;25.610;2023-05-07T08:22:09;28.00;34.50
70986;DHT22;58645;43.068;25.610;2023-05-07T08:24:36;28.40;34.70
70986;DHT22;58645;43.068;25.610;2023-05-07T08:27:02;28.60;31.80
70986;DHT22;58645;43.068;25.610;2023-05-07T08:29:28;28.50;27.90
70986;DHT22;58645;43.068;25.610;2023-05-07T08:31:53;28.00;29.10
70986;DHT22;58645;43.068;25.610;2023-05-07T08:34:19;28.60;28.40
70986;DHT22;58645;43.068;25.610;2023-05-07T08:36:45;28.40;27.70
70986;DHT22;58645;43.068;25.610;2023-05-07T08:39:15;28.00;29.40
70986;DHT22;58645;43.068;25.610;2023-05-07T08:41:44;27.80;27.20
70986;DHT22;58645;43.068;25.610;2023-05-07T08:44:12;27.70;27.60
70986;DHT22;58645;43.068;25.610;2023-05-07T08:46:41;27.80;26.00
70986;DHT22;58645;43.068;25.610;2023-05-07T08:49:09;27.70;27.60
70986;DHT22;58645;43.068;25.610;2023-05-07T08:51:35;27.60;29.20
70986;DHT22;58645;43.068;25.610;2023-05-07T08:54:01;27.40;29.10
70986;DHT22;58645;43.068;25.610;2023-05-07T08:56:27;27.20;30.10
70986;DHT22;58645;43.068;25.610;2023-05-07T08:58:53;27.60;28.70
70986;DHT22;58645;43.068;25.610;2023-05-07T09:01:22;27.40;28.30
70986;DHT22;58645;43.068;25.610;2023-05-07T09:03:49;27.60;29.50
70986;DHT22;58645;43.068;25.610;2023-05-07T09:06:15;27.70;28.40
70986;DHT22;58645;43.068;25.610;2023-05-07T09:08:49;27.60;28.50
70986;DHT22;58645;43.068;25.610;2023-05-07T09:11:14;27.70;28.90
70986;DHT22;58645;43.068;25.610;2023-05-07T09:13:40;27.90;28.90
70986;DHT22;58645;43.068;25.610;2023-05-07T09:16:12;28.00;28.00
70986;DHT22;58645;43.068;25.610;2023-05-07T09:18:42;27.70;27.00
70986;DHT22;58645;43.068;25.610;2023-05-07T09:21:15;28.00;28.70
70986;DHT22;58645;43.068;25.610;2023-05-07T09:23:41;28.30;29.80
70986;DHT22;58645;43.068;25.610;2023-05-07T09:26:07;28.10;30.10
70986;DHT22;58645;43.068;25.610;2023-05-07T09:28:40;27.90;29.80
70986;DHT22;58645;43.068;25.610;2023-05-07T09:31:08;28.20;30.70
70986;DHT22;58645;43.068;25.610;2023-05-07T09:33:34;28.40;30.30
70986;DHT22;58645;43.068;25.610;2023-05-07T09:36:05;28.60;29.10
70986;DHT22;58645;43.068;25.610;2023-05-07T09:38:32;29.10;28.80
70986;DHT22;58645;43.068;25.610;2023-05-07T09:41:11;29.50;27.80
70986;DHT22;58645;43.068;25.610;2023-05-07T09:43:38;29.70;27.80
70986;DHT22;58645;43.068;25.610;2023-05-07T09:46:28;29.70;28.00
70986;DHT22;58645;43.068;25.610;2023-05-07T09:48:57;29.00;29.00
70986;DHT22;58645;43.068;25.610;2023-05-07T09:51:33;28.70;29.00
70986;DHT22;58645;43.068;25.610;2023-05-07T09:54:01;29.10;30.90
70986;DHT22;58645;43.068;25.610;2023-05-07T09:56:29;29.50;29.90
70986;DHT22;58645;43.068;25.610;2023-05-07T09:59:00;29.20;29.60
70986;DHT22;58645;43.068;25.610;2023-05-07T10:01:27;29.10;29.50
70986;DHT22;58645;43.068;25.610;2023-05-07T10:03:53;29.60;30.50
70986;DHT22;58645;43.068;25.610;2023-05-07T10:06:20;29.80;28.60
70986;DHT22;58645;43.068;25.610;2023-05-07T10:08:48;29.80;28.70
70986;DHT22;58645;43.068;25.610;2023-05-07T10:11:15;29.90;29.10
70986;DHT22;58645;43.068;25.610;2023-05-07T10:13:42;29.70;29.00
70986;DHT22;58645;43.068;25.610;2023-05-07T10:16:08;29.70;29.60
70986;DHT22;58645;43.068;25.610;2023-05-07T10:18:34;29.60;30.70
70986;DHT22;58645;43.068;25.610;2023-05-07T10:21:39;29.70;29.10
70986;DHT22;58645;43.068;25.610;2023-05-07T10:24:09;30.30;28.90
70986;DHT22;58645;43.068;25.610;2023-05-07T10:26:45;30.70;28.30
70986;DHT22;58645;43.068;25.610;2023-05-07T10:29:37;30.70;27.80
70986;DHT22;58645;43.068;25.610;2023-05-07T10:35:04;30.70;28.10
70986;DHT22;58645;43.068;25.610;2023-05-07T10:37:32;30.90;27.40
70986;DHT22;58645;43.068;25.610;2023-05-07T10:39:58;31.10;29.10
70986;DHT22;58645;43.068;25.610;2023-05-07T10:42:24;31.00;27.80
70986;DHT22;58645;43.068;25.610;2023-05-07T10:44:50;31.10;28.20
70986;DHT22;58645;43.068;25.610;2023-05-07T10:47:17;31.10;27.60
70986;DHT22;58645;43.068;25.610;2023-05-07T10:52:21;30.60;28.50
70986;DHT22;58645;43.068;25.610;2023-05-07T10:57:40;30.00;29.80
70986;DHT22;58645;43.068;25.610;2023-05-07T11:05:30;29.70;29.30
70986;DHT22;58645;43.068;25.610;2023-05-07T11:08:00;29.70;30.40
70986;DHT22;58645;43.068;25.610;2023-05-07T11:10:52;29.90;29.20
70986;DHT22;58645;43.068;25.610;2023-05-07T11:13:48;30.00;29.50
70986;DHT22;58645;43.068;25.610;2023-05-07T11:16:22;29.50;30.20
70986;DHT22;58645;43.068;25.610;2023-05-07T11:18:53;29.50;29.20
70986;DHT22;58645;43.068;25.610;2023-05-07T11:21:36;29.30;29.40
70986;DHT22;58645;43.068;25.610;2023-05-07T11:24:03;29.50;29.90
70986;DHT22;58645;43.068;25.610;2023-05-07T11:26:41;29.30;31.10
70986;DHT22;58645;43.068;25.610;2023-05-07T11:29:19;28.90;30.00
70986;DHT22;58645;43.068;25.610;2023-05-07T11:31:53;29.00;30.50
70986;DHT22;58645;43.068;25.610;2023-05-07T11:34:23;29.40;30.20
70986;DHT22;58645;43.068;25.610;2023-05-07T11:36:49;29.50;29.90
70986;DHT22;58645;43.068;25.610;2023-05-07T11:39:31;29.30;31.10
70986;DHT22;58645;43.068;25.610;2023-05-07T11:42:02;29.30;31.50
70986;DHT22;58645;43.068;25.610;2023-05-07T11:44:42;29.20;30.50
70986;DHT22;58645;43.068;25.610;2023-05-07T11:47:08;29.20;31.60
70986;DHT22;58645;43.068;25.610;2023-05-07T11:49:34;29.60;30.80
70986;DHT22;58645;43.068;25.610;2023-05-07T11:52:00;29.50;29.80
70986;DHT22;58645;43.068;25.610;2023-05-07T11:54:25;29.50;29.80
70986;DHT22;58645;43.068;25.610;2023-05-07T11:56:51;29.40;29.90
70986;DHT22;58645;43.068;25.610;2023-05-07T11:59:18;29.10;31.00
70986;DHT22;58645;43.068;25.610;2023-05-07T12:01:46;29.40;30.40
70986;DHT22;58645;43.068;25.610;2023-05-07T12:04:12;29.30;30.10
70986;DHT22;58645;43.068;25.610;2023-05-07T12:06:38;28.50;31.20
70986;DHT22;58645;43.068;25.610;2023-05-07T12:09:04;28.30;31.30
70986;DHT22;58645;43.068;25.610;2023-05-07T12:11:32;28.40;31.50
70986;DHT22;58645;43.068;25.610;2023-05-07T12:13:58;28.40;31.40
70986;DHT22;58645;43.068;25.610;2023-05-07T12:16:23;28.20;31.30
70986;DHT22;58645;43.068;25.610;2023-05-07T12:18:50;28.10;31.30
70986;DHT22;58645;43.068;25.610;2023-05-07T12:21:18;28.30;32.70
70986;DHT22;58645;43.068;25.610;2023-05-07T12:23:44;28.70;32.30
70986;DHT22;58645;43.068;25.610;2023-05-07T12:26:10;28.60;31.20
70986;DHT22;58645;43.068;25.610;2023-05-07T12:28:37;28.30;31.00
70986;DHT22;58645;43.068;25.610;2023-05-07T12:31:04;28.60;30.70
70986;DHT22;58645;43.068;25.610;2023-05-07T12:33:31;28.90;30.70
70986;DHT22;58645;43.068;25.610;2023-05-07T12:35:58;28.90;29.70
70986;DHT22;58645;43.068;25.610;2023-05-07T12:38:37;28.90;29.70
70986;DHT22;58645;43.068;25.610;2023-05-07T12:41:03;28.00;30.00
70986;DHT22;58645;43.068;25.610;2023-05-07T12:43:29;28.00;30.90
70986;DHT22;58645;43.068;25.610;2023-05-07T12:45:59;28.30;31.30
70986;DHT22;58645;43.068;25.610;2023-05-07T12:48:25;28.10;31.00
70986;DHT22;58645;43.068;25.610;2023-05-07T12:50:56;28.00;30.60
70986;DHT22;58645;43.068;25.610;2023-05-07T12:53:24;28.00;31.80
70986;DHT22;58645;43.068;25.610;2023-05-07T12:55:55;28.30;30.10
70986;DHT22;58645;43.068;25.610;2023-05-07T12:58:28;28.20;30.50
70986;DHT22;58645;43.068;25.610;2023-05-07T13:00:56;28.40;30.50
70986;DHT22;58645;43.068;25.610;2023-05-07T13:03:28;28.40;30.50
70986;DHT22;58645;43.068;25.610;2023-05-07T13:06:00;28.10;30.40
70986;DHT22;58645;43.068;25.610;2023-05-07T13:10:56;27.90;30.00
70986;DHT22;58645;43.068;25.610;2023-05-07T13:13:22;27.50;31.70
70986;DHT22;58645;43.068;25.610;2023-05-07T13:15:48;27.40;32.40
70986;DHT22;58645;43.068;25.610;2023-05-07T13:18:14;27.50;32.70
70986;DHT22;58645;43.068;25.610;2023-05-07T13:20:39;27.50;32.60
70986;DHT22;58645;43.068;25.610;2023-05-07T13:23:06;27.40;32.30
70986;DHT22;58645;43.068;25.610;2023-05-07T13:25:32;27.20;32.50
70986;DHT22;58645;43.068;25.610;2023-05-07T13:27:57;26.70;32.10
70986;DHT22;58645;43.068;25.610;2023-05-07T13:30:23;26.50;33.10
70986;DHT22;58645;43.068;25.610;2023-05-07T13:32:49;26.20;33.90
70986;DHT22;58645;43.068;25.610;2023-05-07T13:35:16;26.00;34.30
70986;DHT22;58645;43.068;25.610;2023-05-07T13:37:42;25.80;33.60
70986;DHT22;58645;43.068;25.610;2023-05-07T13:40:08;25.50;35.30
70986;DHT22;58645;43.068;25.610;2023-05-07T13:42:34;25.40;35.00
70986;DHT22;58645;43.068;25.610;2023-05-07T13:44:59;25.20;34.60
70986;DHT22;58645;43.068;25.610;2023-05-07T13:47:26;24.90;35.80
70986;DHT22;58645;43.068;25.610;2023-05-07T13:49:51;24.50;36.00
70986;DHT22;58645;43.068;25.610;2023-05-07T13:52:18;24.20;36.30
70986;DHT22;58645;43.068;25.610;2023-05-07T13:54:45;24.00;36.30
70986;DHT22;58645;43.068;25.610;2023-05-07T13:57:11;24.00;36.40
70986;DHT22;58645;43.068;25.610;2023-05-07T13:59:36;23.90;36.80
70986;DHT22;58645;43.068;25.610;2023-05-07T14:02:02;23.80;37.00
70986;DHT22;58645;43.068;25.610;2023-05-07T14:04:28;23.80;37.50
70986;DHT22;58645;43.068;25.610;2023-05-07T14:06:53;23.90;38.30
70986;DHT22;58645;43.068;25.610;2023-05-07T14:09:19;23.90;37.50
70986;DHT22;58645;43.068;25.610;2023-05-07T14:11:45;23.90;38.10
70986;DHT22;58645;43.068;25.610;2023-05-07T14:14:12;24.00;37.80
70986;DHT22;58645;43.068;25.610;2023-05-07T14:16:38;24.00;38.10
70986;DHT22;58645;43.068;25.610;2023-05-07T14:19:04;23.90;38.10
70986;DHT22;58645;43.068;25.610;2023-05-07T14:21:29;23.90;37.90
70986;DHT22;58645;43.068;25.610;2023-05-07T14:23:56;23.70;36.90
70986;DHT22;58645;43.068;25.610;2023-05-07T14:26:21;23.60;38.00
70986;DHT22;58645;43.068;25.610;2023-05-07T14:28:48;23.60;37.20
70986;DHT22;58645;43.068;25.610;2023-05-07T14:31:14;23.50;37.30
70986;DHT22;58645;43.068;25.610;2023-05-07T14:33:40;23.50;38.40
70986;DHT22;58645;43.068;25.610;2023-05-07T14:36:06;23.60;38.50
70986;DHT22;58645;43.068;25.610;2023-05-07T14:38:32;23.70;38.30
70986;DHT22;58645;43.068;25.610;2023-05-07T14:40:58;23.70;37.90
70986;DHT22;58645;43.068;25.610;2023-05-07T14:43:24;23.60;37.30
70986;DHT22;58645;43.068;25.610;2023-05-07T14:45:49;23.60;37.50
70986;DHT22;58645;43.068;25.610;2023-05-07T14:48:15;23.50;37.90
70986;DHT22;58645;43.068;25.610;2023-05-07T14:50:47;23.50;38.60
70986;DHT22;58645;43.068;25.610;2023-05-07T14:53:12;23.60;38.60
70986;DHT22;58645;43.068;25.610;2023-05-07T14:55:38;23.60;39.00
70986;DHT22;58645;43.068;25.610;2023-05-07T14:58:04;23.60;38.20
70986;DHT22;58645;43.068;25.610;2023-05-07T15:00:29;23.50;37.80
70986;DHT22;58645;43.068;25.610;2023-05-07T15:03:01;23.40;38.60
70986;DHT22;58645;43.068;25.610;2023-05-07T15:05:28;23.50;39.30
70986;DHT22;58645;43.068;25.610;2023-05-07T15:07:54;23.40;39.10
70986;DHT22;58645;43.068;25.610;2023-05-07T15:10:19;23.40;39.60
70986;DHT22;58645;43.068;25.610;2023-05-07T15:12:45;23.40;40.10
70986;DHT22;58645;43.068;25.610;2023-05-07T15:15:11;23.40;39.60
70986;DHT22;58645;43.068;25.610;2023-05-07T15:17:36;23.40;39.90
70986;DHT22;58645;43.068;25.610;2023-05-07T15:20:02;23.40;40.00
70986;DHT22;58645;43.068;25.610;2023-05-07T15:22:30;23.20;39.40
70986;DHT22;58645;43.068;25.610;2023-05-07T15:24:56;23.20;39.90
70986;DHT22;58645;43.068;25.610;2023-05-07T15:27:22;23.10;39.80
70986;DHT22;58645;43.068;25.610;2023-05-07T15:29:48;23.20;40.50
70986;DHT22;58645;43.068;25.610;2023-05-07T15:32:14;23.20;40.30